createdAt,value
2019-04-10T00:00:35.668Z,57.00
2019-04-10T00:03:04.169Z,57.00
2019-04-10T00:05:32.497Z,56.90
2019-04-10T00:08:01.814Z,57.00
2019-04-10T00:10:30.324Z,57.00
2019-04-10T00:12:58.717Z,56.90
2019-04-10T00:15:27.086Z,56.90
2019-04-10T00:17:55.669Z,56.90
2019-04-10T00:20:24.580Z,56.80
2019-04-10T00:22:52.992Z,56.90
2019-04-10T00:25:21.352Z,56.90
2019-04-10T00:27:50.695Z,56.90
2019-04-10T00:30:19.207Z,56.90
2019-04-10T00:32:48.101Z,56.90
2019-04-10T00:35:16.544Z,56.90
2019-04-10T00:37:44.992Z,56.90
2019-04-10T00:40:13.304Z,56.90
2019-04-10T00:42:41.671Z,56.90
2019-04-10T00:45:11.005Z,56.90
2019-04-10T00:47:39.601Z,56.90
2019-04-10T00:50:08.511Z,56.90
2019-04-10T00:52:37.118Z,57.00
2019-04-10T00:55:05.775Z,57.00
2019-04-10T00:57:34.107Z,57.00
2019-04-10T01:00:02.487Z,56.90
2019-04-10T01:02:30.860Z,56.90
2019-04-10T01:04:59.226Z,56.90
2019-04-10T01:07:37.604Z,56.90
2019-04-10T01:09:57.644Z,56.90
2019-04-10T01:12:25.972Z,56.90
2019-04-10T01:14:54.343Z,56.90
2019-04-10T01:17:22.701Z,56.90
2019-04-10T01:19:52.273Z,57.00
2019-04-10T01:22:21.255Z,56.90
2019-04-10T01:24:50.209Z,56.90
2019-04-10T01:27:18.764Z,57.00
2019-04-10T01:29:47.121Z,57.00
2019-04-10T01:32:15.502Z,57.10
2019-04-10T01:34:43.842Z,57.10
2019-04-10T01:37:12.421Z,57.10
2019-04-10T01:39:40.795Z,57.20
2019-04-10T01:42:09.245Z,57.10
2019-04-10T01:44:38.491Z,57.20
2019-04-10T01:47:06.995Z,57.20
2019-04-10T01:49:35.369Z,57.20
2019-04-10T01:52:04.714Z,57.20
2019-04-10T01:54:33.358Z,57.10
2019-04-10T01:57:01.725Z,57.10
2019-04-10T01:59:32.107Z,57.20
2019-04-10T02:02:05.204Z,57.10
2019-04-10T02:04:33.785Z,57.10
2019-04-10T02:07:02.226Z,57.10
2019-04-10T02:09:31.667Z,57.20
2019-04-10T02:12:00.180Z,57.20
2019-04-10T02:14:28.569Z,57.10
2019-04-10T02:16:57.079Z,57.10
2019-04-10T02:19:26.102Z,57.10
2019-04-10T02:21:54.516Z,57.20
2019-04-10T02:24:23.010Z,57.20
2019-04-10T02:26:51.965Z,57.20
2019-04-10T02:29:20.424Z,57.30
2019-04-10T02:31:50.681Z,57.20
2019-04-10T02:34:19.442Z,57.30
2019-04-10T02:36:50.673Z,57.30
2019-04-10T02:39:27.448Z,57.30
2019-04-10T02:41:50.002Z,57.30
2019-04-10T02:44:18.749Z,57.30
2019-04-10T02:46:47.571Z,57.30
2019-04-10T02:49:16.499Z,57.30
2019-04-10T02:51:45.380Z,57.40
2019-04-10T02:54:15.365Z,57.40
2019-04-10T02:56:45.587Z,57.40
2019-04-10T02:59:15.456Z,57.40
2019-04-10T03:01:44.191Z,57.40
2019-04-10T03:04:13.354Z,57.40
2019-04-10T03:06:42.838Z,57.40
2019-04-10T03:09:30.543Z,57.40
2019-04-10T03:11:42.052Z,57.40
2019-04-10T03:14:12.357Z,57.40
2019-04-10T03:16:41.769Z,57.40
2019-04-10T03:19:10.333Z,57.40
2019-04-10T03:21:39.531Z,57.40
2019-04-10T03:24:08.063Z,57.40
2019-04-10T03:26:37.367Z,57.40
2019-04-10T03:29:05.795Z,57.40
2019-04-10T03:31:34.551Z,57.40
2019-04-10T03:34:22.657Z,57.40
2019-04-10T03:36:51.850Z,57.40
2019-04-10T03:39:20.156Z,57.50
2019-04-10T03:41:48.544Z,57.50
2019-04-10T03:44:16.896Z,57.50
2019-04-10T03:46:45.269Z,57.50
2019-04-10T03:49:13.750Z,57.50
2019-04-10T03:51:43.021Z,57.50
2019-04-10T03:54:11.586Z,57.60
2019-04-10T03:56:40.161Z,57.50
2019-04-10T03:59:08.719Z,57.60
2019-04-10T04:01:37.082Z,57.50
2019-04-10T04:04:05.459Z,57.60
2019-04-10T04:06:33.828Z,57.50
2019-04-10T04:09:08.957Z,57.50
2019-04-10T04:11:32.224Z,57.50
2019-04-10T04:14:00.611Z,57.50
2019-04-10T04:16:29.023Z,57.50
2019-04-10T04:18:57.651Z,57.60
2019-04-10T04:21:26.231Z,57.50
2019-04-10T04:23:55.238Z,57.60
2019-04-10T04:26:23.663Z,57.50
2019-04-10T04:28:52.028Z,57.60
2019-04-10T04:31:20.396Z,57.50
2019-04-10T04:33:48.986Z,57.60
2019-04-10T04:36:18.263Z,57.60
2019-04-10T04:38:46.821Z,57.60
2019-04-10T04:41:15.434Z,57.60
2019-04-10T04:43:45.990Z,57.60
2019-04-10T04:46:14.131Z,57.60
2019-04-10T04:48:43.330Z,57.70
2019-04-10T04:51:11.909Z,57.60
2019-04-10T04:53:40.287Z,57.70
2019-04-10T04:56:09.491Z,57.70
2019-04-10T04:58:38.190Z,57.60
2019-04-10T05:01:06.622Z,57.60
2019-04-10T05:03:35.410Z,57.70
2019-04-10T05:06:04.069Z,57.80
2019-04-10T05:08:32.436Z,57.70
2019-04-10T05:11:00.796Z,57.70
2019-04-10T05:13:29.175Z,57.80
2019-04-10T05:15:57.613Z,57.80
2019-04-10T05:18:25.915Z,57.80
2019-04-10T05:20:54.733Z,57.80
2019-04-10T05:23:24.367Z,57.80
2019-04-10T05:25:53.861Z,57.80
2019-04-10T05:28:22.432Z,57.90
2019-04-10T05:30:50.793Z,57.90
2019-04-10T05:33:19.153Z,57.90
2019-04-10T05:35:48.702Z,58.50
2019-04-10T05:38:17.308Z,58.00
2019-04-10T05:40:45.696Z,58.00
2019-04-10T05:43:14.088Z,58.00
2019-04-10T05:45:42.466Z,58.00
2019-04-10T05:48:11.086Z,58.30
2019-04-10T05:50:39.876Z,58.00
2019-04-10T05:53:08.385Z,58.10
2019-04-10T05:55:36.773Z,58.10
2019-04-10T05:58:05.129Z,58.00
2019-04-10T06:00:34.528Z,58.00
2019-04-10T06:03:03.934Z,58.00
2019-04-10T06:05:32.450Z,58.00
2019-04-10T06:08:01.353Z,58.00
2019-04-10T06:10:30.150Z,57.90
2019-04-10T06:12:58.697Z,57.90
2019-04-10T06:15:27.056Z,57.90
2019-04-10T06:17:56.519Z,58.00
2019-04-10T06:20:25.143Z,58.10
2019-04-10T06:22:54.650Z,58.10
2019-04-10T06:25:24.698Z,58.10
2019-04-10T06:27:53.615Z,58.10
2019-04-10T06:30:21.992Z,58.10
2019-04-10T06:32:51.536Z,58.30
2019-04-10T06:35:20.157Z,58.30
2019-04-10T06:37:48.524Z,58.20
2019-04-10T06:40:21.323Z,58.30
2019-04-10T06:42:51.609Z,58.20
2019-04-10T06:45:17.773Z,58.20
2019-04-10T06:47:46.622Z,58.20
2019-04-10T06:50:15.155Z,58.10
2019-04-10T06:52:43.522Z,58.10
2019-04-10T06:55:11.935Z,58.10
2019-04-10T06:57:50.983Z,58.10
2019-04-10T07:00:13.701Z,58.10
2019-04-10T07:02:42.272Z,58.10
2019-04-10T07:05:12.132Z,58.20
2019-04-10T07:07:50.966Z,58.10
2019-04-10T07:10:22.401Z,58.20
2019-04-10T07:12:41.713Z,58.30
2019-04-10T07:15:10.633Z,58.30
2019-04-10T07:17:41.026Z,58.20
2019-04-10T07:20:09.540Z,58.70
2019-04-10T07:22:44.666Z,58.20
2019-04-10T07:25:10.305Z,58.20
2019-04-10T07:27:39.997Z,58.30
2019-04-10T07:30:08.205Z,58.30
2019-04-10T07:32:40.893Z,58.30
2019-04-10T07:35:06.773Z,58.30
2019-04-10T07:37:36.200Z,58.40
2019-04-10T07:40:07.828Z,58.50
2019-04-10T07:42:39.651Z,58.60
2019-04-10T07:45:06.849Z,58.80
2019-04-10T07:47:35.978Z,58.80
2019-04-10T07:50:08.648Z,58.70
2019-04-10T07:52:37.307Z,58.80
2019-04-10T07:55:06.605Z,58.70
2019-04-10T07:57:36.288Z,58.70
2019-04-10T08:00:06.729Z,58.60
2019-04-10T08:02:35.017Z,58.60
2019-04-10T08:05:04.529Z,58.70
2019-04-10T08:07:35.738Z,58.60
2019-04-10T08:10:03.636Z,58.60
2019-04-10T08:12:39.543Z,58.60
2019-04-10T08:15:02.845Z,58.70
2019-04-10T08:17:32.418Z,58.80
2019-04-10T08:20:01.622Z,58.80
2019-04-10T08:22:30.736Z,58.80
2019-04-10T08:25:00.169Z,58.80
2019-04-10T08:27:29.804Z,58.70
2019-04-10T08:29:59.068Z,58.90
2019-04-10T08:32:27.607Z,59.40
2019-04-10T08:34:56.108Z,58.80
2019-04-10T08:37:24.681Z,58.80
2019-04-10T08:39:53.031Z,58.90
2019-04-10T08:42:22.383Z,58.90
2019-04-10T08:44:52.075Z,58.90
2019-04-10T08:47:20.548Z,58.90
2019-04-10T08:49:49.447Z,58.90
2019-04-10T08:52:17.970Z,59.00
2019-04-10T08:54:46.315Z,59.00
2019-04-10T08:57:14.695Z,59.00
2019-04-10T08:59:44.537Z,59.00
2019-04-10T09:02:13.683Z,59.60
2019-04-10T09:04:42.247Z,59.00
2019-04-10T09:07:11.625Z,59.10
2019-04-10T09:09:40.183Z,59.10
2019-04-10T09:12:09.378Z,59.10
2019-04-10T09:14:38.159Z,59.20
2019-04-10T09:17:06.975Z,59.20
2019-04-10T09:19:36.228Z,59.20
2019-04-10T09:22:05.887Z,59.20
2019-04-10T09:24:34.327Z,59.20
2019-04-10T09:27:02.692Z,59.40
2019-04-10T09:29:31.951Z,59.30
2019-04-10T09:32:00.544Z,59.30
2019-04-10T09:34:28.904Z,59.30
2019-04-10T09:36:57.730Z,59.20
2019-04-10T09:39:27.452Z,59.10
2019-04-10T09:41:56.475Z,59.00
2019-04-10T09:44:25.672Z,59.00
2019-04-10T09:46:54.160Z,59.00
2019-04-10T09:49:32.619Z,59.20
2019-04-10T09:51:52.546Z,59.40
2019-04-10T09:54:21.815Z,59.40
2019-04-10T09:56:50.618Z,59.30
2019-04-10T09:59:30.526Z,59.30
2019-04-10T10:01:49.197Z,59.30
2019-04-10T10:04:17.568Z,59.20
2019-04-10T10:06:45.947Z,59.20
2019-04-10T10:09:14.791Z,59.20
2019-04-10T10:11:43.297Z,59.30
2019-04-10T10:14:12.572Z,59.40
2019-04-10T10:16:42.136Z,59.50
2019-04-10T10:19:10.696Z,59.60
2019-04-10T10:21:39.104Z,59.50
2019-04-10T10:24:08.593Z,59.30
2019-04-10T10:26:37.144Z,59.10
2019-04-10T10:29:05.524Z,59.10
2019-04-10T10:31:33.889Z,59.10
2019-04-10T10:34:02.279Z,59.20
2019-04-10T10:36:39.301Z,59.30
2019-04-10T10:39:08.806Z,59.50
2019-04-10T10:41:31.880Z,59.60
2019-04-10T10:44:00.626Z,59.60
2019-04-10T10:46:29.321Z,59.60
2019-04-10T10:48:57.967Z,59.50
2019-04-10T10:51:26.807Z,59.60
2019-04-10T10:53:55.340Z,59.60
2019-04-10T10:56:24.450Z,59.70
2019-04-10T10:58:53.180Z,59.60
2019-04-10T11:01:22.148Z,59.70
2019-04-10T11:03:50.799Z,59.70
2019-04-10T11:06:19.367Z,59.70
2019-04-10T11:08:47.809Z,59.80
2019-04-10T11:11:17.077Z,59.90
2019-04-10T11:13:46.916Z,59.70
2019-04-10T11:16:16.823Z,59.60
2019-04-10T11:18:46.842Z,59.40
2019-04-10T11:21:16.637Z,59.40
2019-04-10T11:23:45.363Z,59.30
2019-04-10T11:26:18.896Z,59.30
2019-04-10T11:28:43.812Z,59.40
2019-04-10T11:31:13.535Z,59.40
2019-04-10T11:33:43.872Z,59.60
2019-04-10T11:36:12.516Z,59.70
2019-04-10T11:38:42.872Z,59.70
2019-04-10T11:41:12.472Z,59.90
2019-04-10T11:43:41.624Z,59.90
2019-04-10T11:46:10.497Z,60.00
2019-04-10T11:48:44.688Z,60.00
2019-04-10T11:51:13.253Z,59.80
2019-04-10T11:53:44.126Z,59.60
2019-04-10T11:56:11.592Z,59.60
2019-04-10T11:58:50.713Z,59.60
2019-04-10T12:01:10.543Z,59.70
2019-04-10T12:03:45.142Z,59.80
2019-04-10T12:06:11.960Z,59.80
2019-04-10T12:09:03.671Z,59.90
2019-04-10T12:11:14.549Z,59.90
2019-04-10T12:13:39.272Z,60.00
2019-04-10T12:16:07.639Z,59.90
2019-04-10T12:18:35.991Z,60.00
2019-04-10T12:21:05.206Z,60.00
2019-04-10T12:23:34.658Z,60.10
2019-04-10T12:26:03.356Z,60.10
2019-04-10T12:28:31.892Z,60.20
2019-04-10T12:31:00.200Z,60.40
2019-04-10T12:33:29.590Z,60.70
2019-04-10T12:35:58.284Z,60.60
2019-04-10T12:38:27.723Z,60.60
2019-04-10T12:40:57.246Z,60.80
2019-04-10T12:43:25.914Z,60.70
2019-04-10T12:45:54.809Z,60.50
2019-04-10T12:48:23.168Z,60.30
2019-04-10T12:50:51.542Z,60.40
2019-04-10T12:53:19.925Z,60.10
2019-04-10T12:55:49.309Z,59.80
2019-04-10T12:58:19.255Z,59.60
2019-04-10T13:00:48.149Z,59.40
2019-04-10T13:03:16.815Z,59.40
2019-04-10T13:05:45.305Z,59.40
2019-04-10T13:08:21.290Z,59.50
2019-04-10T13:10:44.218Z,59.60
2019-04-10T13:13:13.556Z,59.60
2019-04-10T13:15:42.123Z,59.80
2019-04-10T13:18:10.504Z,60.00
2019-04-10T13:20:39.889Z,60.10
2019-04-10T13:23:08.685Z,60.20
2019-04-10T13:25:37.103Z,60.10
2019-04-10T13:28:05.570Z,59.80
2019-04-10T13:30:44.750Z,59.70
2019-04-10T13:33:04.609Z,59.60
2019-04-10T13:35:33.091Z,59.60
2019-04-10T13:38:01.451Z,59.60
2019-04-10T13:40:29.930Z,59.70
2019-04-10T13:42:58.295Z,59.70
2019-04-10T13:45:27.067Z,59.80
2019-04-10T13:47:56.590Z,59.90
2019-04-10T13:50:26.374Z,60.20
2019-04-10T13:52:55.575Z,60.50
2019-04-10T13:55:24.280Z,60.40
2019-04-10T13:57:53.016Z,60.30
2019-04-10T14:00:25.917Z,60.20
2019-04-10T14:02:54.520Z,60.10
2019-04-10T14:05:24.015Z,60.50
2019-04-10T14:07:53.440Z,60.40
2019-04-10T14:10:22.855Z,60.30
2019-04-10T14:12:51.434Z,60.10
2019-04-10T14:15:20.193Z,60.00
2019-04-10T14:17:48.683Z,59.80
2019-04-10T14:20:17.426Z,59.40
2019-04-10T14:23:02.487Z,59.20
2019-04-10T14:25:32.499Z,59.20
2019-04-10T14:28:00.880Z,59.20
2019-04-10T14:30:37.682Z,59.20
2019-04-10T14:33:07.160Z,59.50
2019-04-10T14:35:35.740Z,60.00
2019-04-10T14:38:04.794Z,60.20
2019-04-10T14:40:33.928Z,60.10
2019-04-10T14:43:03.224Z,59.80
2019-04-10T14:45:31.736Z,59.70
2019-04-10T14:48:00.171Z,59.40
2019-04-10T14:50:29.466Z,59.30
2019-04-10T14:52:57.905Z,59.40
2019-04-10T14:55:27.172Z,59.30
2019-04-10T14:57:55.747Z,59.30
2019-04-10T15:00:31.421Z,59.40
2019-04-10T15:03:00.155Z,59.30
2019-04-10T15:05:28.560Z,59.30
2019-04-10T15:07:57.522Z,59.40
2019-04-10T15:10:25.882Z,59.50
2019-04-10T15:12:55.475Z,59.60
2019-04-10T15:15:24.264Z,59.60
2019-04-10T15:17:52.631Z,59.80
2019-04-10T15:20:21.032Z,60.00
2019-04-10T15:22:49.804Z,60.10
2019-04-10T15:25:19.225Z,60.20
2019-04-10T15:27:48.048Z,60.00
2019-04-10T15:30:16.436Z,60.00
2019-04-10T15:32:45.397Z,59.90
2019-04-10T15:35:13.980Z,59.80
2019-04-10T15:37:42.355Z,59.70
2019-04-10T15:40:18.489Z,59.70
2019-04-10T15:42:40.748Z,59.60
2019-04-10T15:45:09.107Z,59.60
2019-04-10T15:47:37.521Z,59.70
2019-04-10T15:50:07.438Z,59.80
2019-04-10T15:52:37.543Z,59.80
2019-04-10T15:55:06.128Z,59.70
2019-04-10T15:57:47.015Z,59.70
2019-04-10T16:00:08.786Z,59.70
2019-04-10T16:02:38.369Z,59.60
2019-04-10T16:05:07.226Z,59.60
2019-04-10T16:07:36.292Z,59.60
2019-04-10T16:10:09.657Z,59.60
2019-04-10T16:12:38.016Z,59.60
2019-04-10T16:15:06.470Z,59.60
2019-04-10T16:17:42.461Z,59.70
2019-04-10T16:20:25.638Z,59.60
2019-04-10T16:22:56.731Z,59.70
2019-04-10T16:25:30.879Z,60.30
2019-04-10T16:28:00.627Z,59.70
2019-04-10T16:30:30.595Z,59.80
2019-04-10T16:32:59.035Z,59.90
2019-04-10T16:35:27.463Z,59.80
2019-04-10T16:37:56.006Z,59.80
2019-04-10T16:40:24.468Z,59.70
2019-04-10T16:42:53.024Z,59.80
2019-04-10T16:45:22.327Z,59.70
2019-04-10T16:47:50.881Z,59.70
2019-04-10T16:50:19.562Z,59.70
2019-04-10T16:52:48.044Z,59.70
2019-04-10T16:55:16.404Z,59.70
2019-04-10T16:57:45.281Z,59.60
2019-04-10T17:00:16.706Z,59.60
2019-04-10T17:02:44.628Z,59.60
2019-04-10T17:05:12.987Z,59.70
2019-04-10T17:07:41.365Z,59.70
2019-04-10T17:10:16.695Z,59.70
2019-04-10T17:12:40.723Z,59.60
2019-04-10T17:15:10.318Z,59.70
2019-04-10T17:17:38.882Z,59.70
2019-04-10T17:20:08.581Z,59.70
2019-04-10T17:22:43.522Z,59.70
2019-04-10T17:25:07.326Z,59.70
2019-04-10T17:27:35.704Z,59.60
2019-04-10T17:30:08.026Z,59.70
2019-04-10T17:32:36.420Z,59.70
2019-04-10T17:35:07.749Z,59.70
2019-04-10T17:37:38.092Z,60.30
2019-04-10T17:40:09.308Z,59.70
2019-04-10T17:42:38.160Z,59.70
2019-04-10T17:45:08.226Z,59.80
2019-04-10T17:47:36.789Z,59.80
2019-04-10T17:50:07.746Z,59.80
2019-04-10T17:52:37.928Z,59.80
2019-04-10T17:55:07.417Z,59.80
2019-04-10T17:57:40.204Z,59.80
2019-04-10T18:00:13.129Z,59.80
2019-04-10T18:02:41.608Z,59.70
2019-04-10T18:05:10.597Z,59.80
2019-04-10T18:07:39.145Z,59.80
2019-04-10T18:10:08.473Z,59.80
2019-04-10T18:12:36.891Z,59.90
2019-04-10T18:15:06.290Z,59.90
2019-04-10T18:17:35.436Z,59.90
2019-04-10T18:20:04.968Z,59.80
2019-04-10T18:22:34.316Z,59.80
2019-04-10T18:25:03.470Z,59.80
2019-04-10T18:27:32.322Z,59.90
2019-04-10T18:30:00.811Z,59.90
2019-04-10T18:32:29.667Z,59.90
2019-04-10T18:34:58.348Z,59.90
2019-04-10T18:37:28.550Z,59.90
2019-04-10T18:39:57.081Z,59.90
2019-04-10T18:42:26.617Z,59.90
2019-04-10T18:44:55.463Z,59.90
2019-04-10T18:47:24.970Z,59.90
2019-04-10T18:49:54.023Z,59.90
2019-04-10T18:52:23.368Z,59.90
2019-04-10T18:54:52.062Z,59.90
2019-04-10T18:57:20.421Z,60.00
2019-04-10T18:59:51.134Z,60.00
2019-04-10T19:02:37.581Z,60.10
2019-04-10T19:05:17.340Z,60.00
2019-04-10T19:07:46.201Z,60.00
2019-04-10T19:10:14.779Z,60.10
2019-04-10T19:12:43.237Z,60.10
2019-04-10T19:15:12.677Z,60.10
2019-04-10T19:17:41.958Z,60.10
2019-04-10T19:20:11.086Z,60.10
2019-04-10T19:22:40.137Z,60.00
2019-04-10T19:25:08.672Z,60.80
2019-04-10T19:27:37.118Z,60.10
2019-04-10T19:30:10.749Z,60.10
2019-04-10T19:32:39.416Z,60.10
2019-04-10T19:35:07.768Z,60.10
2019-04-10T19:37:36.753Z,60.10
2019-04-10T19:40:09.395Z,60.20
2019-04-10T19:42:37.631Z,60.10
2019-04-10T19:45:07.846Z,60.10
2019-04-10T19:47:36.730Z,60.10
2019-04-10T19:50:05.574Z,60.10
2019-04-10T19:52:33.943Z,60.10
2019-04-10T19:55:03.292Z,60.10
2019-04-10T19:57:31.876Z,60.10
2019-04-10T20:00:00.534Z,60.10
2019-04-10T20:02:28.979Z,60.00
2019-04-10T20:04:57.347Z,60.10
2019-04-10T20:07:26.999Z,60.20
2019-04-10T20:09:55.500Z,60.10
2019-04-10T20:12:24.472Z,60.20
2019-04-10T20:14:53.332Z,61.00
2019-04-10T20:17:22.039Z,60.10
2019-04-10T20:19:52.617Z,60.20
2019-04-10T20:22:20.910Z,60.20
2019-04-10T20:24:50.809Z,60.20
2019-04-10T20:27:20.228Z,60.30
2019-04-10T20:29:48.601Z,60.40
2019-04-10T20:32:17.669Z,60.40
2019-04-10T20:34:46.217Z,60.40
2019-04-10T20:37:14.586Z,60.40
2019-04-10T20:39:42.939Z,60.30
2019-04-10T20:42:11.304Z,60.30
2019-04-10T20:44:40.641Z,60.30
2019-04-10T20:47:09.255Z,60.40
2019-04-10T20:49:38.469Z,60.40
2019-04-10T20:52:08.360Z,60.50
2019-04-10T20:54:37.134Z,60.50
2019-04-10T20:57:06.506Z,60.50
2019-04-10T20:59:35.643Z,60.50
2019-04-10T21:02:04.253Z,60.60
2019-04-10T21:04:33.755Z,60.50
2019-04-10T21:07:02.925Z,60.50
2019-04-10T21:09:32.095Z,60.50
2019-04-10T21:12:06.747Z,60.50
2019-04-10T21:14:31.661Z,60.60
2019-04-10T21:17:00.461Z,60.50
2019-04-10T21:19:29.049Z,60.50
2019-04-10T21:21:57.641Z,60.50
2019-04-10T21:24:26.022Z,60.60
2019-04-10T21:26:54.852Z,60.60
2019-04-10T21:29:42.091Z,60.60
2019-04-10T21:32:12.963Z,60.70
2019-04-10T21:34:42.737Z,60.70
2019-04-10T21:37:11.258Z,60.70
2019-04-10T21:39:39.616Z,60.70
2019-04-10T21:42:15.825Z,60.80
2019-04-10T21:44:37.997Z,60.70
2019-04-10T21:47:06.361Z,60.70
2019-04-10T21:49:35.804Z,60.70
2019-04-10T21:52:05.586Z,60.80
2019-04-10T21:54:34.706Z,60.70
2019-04-10T21:57:03.171Z,60.80
2019-04-10T21:59:31.528Z,60.80
2019-04-10T22:01:59.969Z,60.90
2019-04-10T22:04:28.413Z,60.80
2019-04-10T22:07:01.447Z,60.80
2019-04-10T22:09:34.931Z,60.80
2019-04-10T22:12:05.787Z,60.80
2019-04-10T22:14:34.179Z,60.90
2019-04-10T22:17:03.340Z,60.90
2019-04-10T22:19:31.692Z,61.10
2019-04-10T22:22:00.449Z,60.90
2019-04-10T22:24:29.864Z,60.90
2019-04-10T22:26:58.644Z,61.00
2019-04-10T22:29:28.198Z,60.90
2019-04-10T22:31:57.734Z,60.90
2019-04-10T22:34:27.616Z,61.00
2019-04-10T22:36:56.233Z,61.00
2019-04-10T22:39:25.355Z,61.00
2019-04-10T22:41:54.783Z,61.00
2019-04-10T22:44:33.825Z,61.00
2019-04-10T22:46:54.395Z,61.00
2019-04-10T22:49:22.884Z,61.00
2019-04-10T22:51:51.810Z,61.10
2019-04-10T22:54:20.323Z,61.10
2019-04-10T22:56:49.902Z,61.10
2019-04-10T22:59:18.490Z,61.10
2019-04-10T23:01:59.628Z,61.00
2019-04-10T23:04:17.779Z,61.10
2019-04-10T23:06:47.151Z,61.20
2019-04-10T23:09:15.889Z,61.10
2019-04-10T23:11:46.492Z,61.10
2019-04-10T23:14:14.427Z,61.10
2019-04-10T23:16:42.772Z,61.20
2019-04-10T23:19:11.981Z,61.10
2019-04-10T23:21:40.854Z,61.10
2019-04-10T23:24:09.557Z,61.10
2019-04-10T23:26:38.075Z,61.10
2019-04-10T23:29:06.440Z,61.10
2019-04-10T23:31:34.815Z,61.10
2019-04-10T23:34:04.113Z,61.10
2019-04-10T23:36:32.659Z,61.10
2019-04-10T23:39:01.024Z,61.10
2019-04-10T23:41:29.615Z,61.20
2019-04-10T23:43:58.052Z,61.10
2019-04-10T23:46:26.456Z,61.10
2019-04-10T23:48:55.161Z,61.20
2019-04-10T23:51:23.759Z,61.20
2019-04-10T23:53:53.033Z,61.20
2019-04-10T23:56:21.838Z,61.20
2019-04-10T23:58:50.753Z,61.20
